Vohburg — V2OW7 — position and weather

sailwx.info

Track history (hours):
 
Tides and Currents Weather Stations Pressure Air Temp Water Temp Dewpoint Dewpoint Depression Visibility Wind Speed Wind Dir Waves Ship Positions

Vohburg

Last reported at 2014-Oct-22 21:32 UTC. Time now 2014-Oct-23 14:33 UTC.
Position N 59°58' E 026°55'.

Length 140 m; draft 5.7 m.

Type: Ship (hazmat cat A). MMSI: 305773000.

Date/timePositionNaut miles runAvg speedWind from/ knotsBaromVisibWave heightAir tempDewpointWater temp
2014-Oct-22 21:32N 59°58' E 026°55'1815.8
2014-Oct-22 20:25N 59°58' E 026°19'3515.2
2014-Oct-22 18:07N 60°06' E 025°11'712.4
2014-Oct-22 17:33N 60°13' E 025°12'0 0.3
2014-Oct-22 16:13N 60°13' E 025°11'0 0.0
2014-Oct-22 15:30N 60°13' E 025°11'0 0.1
2014-Oct-22 12:33N 60°13' E 025°12'3812.9
2014-Oct-22 09:34N 59°43' E 024°22'1616.0
2014-Oct-22 08:33N 59°38' E 023°52'41310.3
2014-Oct-20 16:33N 54°43' E 014°59'8916.9
2014-Oct-20 11:16N 54°38' E 012°25'1216.6
2014-Oct-20 10:33N 54°28' E 012°14'1616.3
2014-Oct-20 09:33N 54°25' E 011°46'3617.5
2014-Oct-20 07:30N 54°34' E 010°47'1716.8
2014-Oct-20 06:30N 54°29' E 010°19'1010.2
2014-Oct-20 05:34N 54°22' E 010°08'5 5.0
2014-Oct-20 04:34N 54°21' E 009°60'8 7.3
2014-Oct-20 03:31N 54°22' E 009°47'30 7.7
2014-Oct-19 23:33N 53°58' E 009°15'5 5.5
2014-Oct-19 22:33N 53°54' E 009°09'8 7.5
2014-Oct-19 21:33N 53°51' E 008°57'1615.9
2014-Oct-19 20:33N 53°58' E 008°33'1514.9
2014-Oct-19 19:33N 53°59' E 008°07'7318.3
2014-Oct-19 15:32N 53°42' E 006°07'1818.5
2014-Oct-19 14:34N 53°36' E 005°38'1918.5
2014-Oct-19 13:34N 53°30' E 005°08'1818.0
2014-Oct-19 12:33N 53°21' E 004°42'3818.5
2014-Oct-19 10:29N 52°47' E 004°11'2117.9
2014-Oct-19 09:19N 52°29' E 003°54'1317.5
2014-Oct-19 08:33N 52°16' E 003°53'1414.3
2014-Oct-19 07:33N 52°02' E 003°55'1514.9
2014-Oct-19 06:33N 51°54' E 004°16'6 5.7
2014-Oct-19 05:31N 51°53' E 004°25'0 0.0
2014-Oct-19 03:33N 51°53' E 004°25'0 0.0
2014-Oct-19 02:33N 51°53' E 004°25'0 0.0
2014-Oct-19 01:27N 51°53' E 004°25'0 0.0
2014-Oct-19 00:30N 51°53' E 004°25'0 0.0
2014-Oct-18 23:33N 51°53' E 004°25'0 0.0
2014-Oct-18 22:33N 51°53' E 004°25'0 0.0
2014-Oct-18 21:30N 51°53' E 004°25'0 0.0
2014-Oct-18 20:21N 51°53' E 004°25'0 0.0
2014-Oct-18 19:33N 51°53' E 004°25'0 0.0
2014-Oct-18 18:24N 51°53' E 004°25'0 0.0
2014-Oct-18 17:27N 51°53' E 004°25'0 0.0
2014-Oct-18 16:24N 51°53' E 004°25'0 0.0
2014-Oct-18 15:26N 51°53' E 004°25'1 0.9
2014-Oct-18 14:33N 51°53' E 004°24'1010.1
2014-Oct-18 13:33N 51°57' E 004°09'1312.6
2014-Oct-18 12:33N 52°02' E 003°50'7915.3
2014-Oct-18 07:25N 52°49' E 002°07'1315.2
2014-Oct-18 06:34N 52°57' E 001°50'1616.1
2014-Oct-18 05:33N 53°06' E 001°27'4715.7
2014-Oct-18 02:33N 53°44' E 000°41'1616.0
2014-Oct-18 01:33N 53°56' E 000°23'1616.3
2014-Oct-18 00:34N 54°08' E 000°04'1716.7
2014-Oct-17 23:34N 54°21' W 000°14'1717.0
2014-Oct-17 22:33N 54°33' W 000°35'1716.8
2014-Oct-17 21:32N 54°39' W 001°02'5 4.5
2014-Oct-17 20:24N 54°36' W 001°09'0 0.0
2014-Oct-17 19:25N 54°36' W 001°09'0 0.0
2014-Oct-17 18:23N 54°36' W 001°09'0 0.0
2014-Oct-17 17:11N 54°36' W 001°09'0 0.0
2014-Oct-17 16:32N 54°36' W 001°09'0 0.0
2014-Oct-17 15:20N 54°36' W 001°09'0 0.0
2014-Oct-17 14:21N 54°36' W 001°09'0 0.0
2014-Oct-17 13:27N 54°36' W 001°09'5 6.0
2014-Oct-17 12:33N 54°41' W 001°05'1616.0
2014-Oct-17 11:33N 54°47' W 000°39'39916.6
2014-Oct-16 11:33N 57°42' E 010°05'1919.1
2014-Oct-16 10:33N 57°47' E 010°40'1817.4
2014-Oct-16 09:31N 57°37' E 011°08'1717.5
2014-Oct-16 08:33N 57°25' E 011°29'1818.2
2014-Oct-16 07:33N 57°08' E 011°40'1818.1
2014-Oct-16 06:33N 56°51' E 011°51'1817.7
2014-Oct-16 05:33N 56°34' E 012°01'1818.1
2014-Oct-16 04:33N 56°19' E 012°19'1919.3
2014-Oct-16 03:33N 56°03' E 012°39'1716.6
2014-Oct-16 02:33N 55°47' E 012°42'1414.3
2014-Oct-16 01:33N 55°32' E 012°43'1514.9
2014-Oct-16 00:33N 55°18' E 012°43'5417.5
2014-Oct-15 21:26N 55°16' E 014°19'1617.5
2014-Oct-15 20:31N 55°26' E 014°40'1717.6
2014-Oct-15 19:33N 55°27' E 015°10'362 9.0
2014-Oct-14 03:27N 59°37' E 023°17'1617.8
2014-Oct-14 02:33N 59°41' E 023°47'1817.8
2014-Oct-14 01:33N 59°46' E 024°21'66 5.1
2014-Oct-13 12:34N 60°02' E 026°29'  
Track history (hours):
 
Tides and Currents Weather Stations Pressure Air Temp Water Temp Dewpoint Dewpoint Depression Visibility Wind Speed Wind Dir Waves Ship Positions

Vohburg

Last reported at 2014-Oct-22 21:32 UTC. Time now 2014-Oct-23 14:33 UTC.
Position N 59°58' E 026°55'.

Length 140 m; draft 5.7 m.

Type: Ship (hazmat cat A). MMSI: 305773000.

Date/timePositionNaut miles runAvg speedWind from/ knotsBaromVisibWave heightAir tempDewpointWater temp
2014-Oct-22 21:32N 59°58' E 026°55'1815.8
2014-Oct-22 20:25N 59°58' E 026°19'3515.2
2014-Oct-22 18:07N 60°06' E 025°11'712.4
2014-Oct-22 17:33N 60°13' E 025°12'0 0.3
2014-Oct-22 16:13N 60°13' E 025°11'0 0.0
2014-Oct-22 15:30N 60°13' E 025°11'0 0.1
2014-Oct-22 12:33N 60°13' E 025°12'3812.9
2014-Oct-22 09:34N 59°43' E 024°22'1616.0
2014-Oct-22 08:33N 59°38' E 023°52'41310.3
2014-Oct-20 16:33N 54°43' E 014°59'8916.9
2014-Oct-20 11:16N 54°38' E 012°25'1216.6
2014-Oct-20 10:33N 54°28' E 012°14'1616.3
2014-Oct-20 09:33N 54°25' E 011°46'3617.5
2014-Oct-20 07:30N 54°34' E 010°47'1716.8
2014-Oct-20 06:30N 54°29' E 010°19'1010.2
2014-Oct-20 05:34N 54°22' E 010°08'5 5.0
2014-Oct-20 04:34N 54°21' E 009°60'8 7.3
2014-Oct-20 03:31N 54°22' E 009°47'30 7.7
2014-Oct-19 23:33N 53°58' E 009°15'5 5.5
2014-Oct-19 22:33N 53°54' E 009°09'8 7.5
2014-Oct-19 21:33N 53°51' E 008°57'1615.9
2014-Oct-19 20:33N 53°58' E 008°33'1514.9
2014-Oct-19 19:33N 53°59' E 008°07'7318.3
2014-Oct-19 15:32N 53°42' E 006°07'1818.5
2014-Oct-19 14:34N 53°36' E 005°38'1918.5
2014-Oct-19 13:34N 53°30' E 005°08'1818.0
2014-Oct-19 12:33N 53°21' E 004°42'3818.5
2014-Oct-19 10:29N 52°47' E 004°11'2117.9
2014-Oct-19 09:19N 52°29' E 003°54'1317.5
2014-Oct-19 08:33N 52°16' E 003°53'1414.3
2014-Oct-19 07:33N 52°02' E 003°55'1514.9
2014-Oct-19 06:33N 51°54' E 004°16'6 5.7
2014-Oct-19 05:31N 51°53' E 004°25'0 0.0
2014-Oct-19 03:33N 51°53' E 004°25'0 0.0
2014-Oct-19 02:33N 51°53' E 004°25'0 0.0
2014-Oct-19 01:27N 51°53' E 004°25'0 0.0
2014-Oct-19 00:30N 51°53' E 004°25'0 0.0
2014-Oct-18 23:33N 51°53' E 004°25'0 0.0
2014-Oct-18 22:33N 51°53' E 004°25'0 0.0
2014-Oct-18 21:30N 51°53' E 004°25'0 0.0
2014-Oct-18 20:21N 51°53' E 004°25'0 0.0
2014-Oct-18 19:33N 51°53' E 004°25'0 0.0
2014-Oct-18 18:24N 51°53' E 004°25'0 0.0
2014-Oct-18 17:27N 51°53' E 004°25'0 0.0
2014-Oct-18 16:24N 51°53' E 004°25'0 0.0
2014-Oct-18 15:26N 51°53' E 004°25'1 0.9
2014-Oct-18 14:33N 51°53' E 004°24'1010.1
2014-Oct-18 13:33N 51°57' E 004°09'1312.6
2014-Oct-18 12:33N 52°02' E 003°50'7915.3
2014-Oct-18 07:25N 52°49' E 002°07'1315.2
2014-Oct-18 06:34N 52°57' E 001°50'1616.1
2014-Oct-18 05:33N 53°06' E 001°27'4715.7
2014-Oct-18 02:33N 53°44' E 000°41'1616.0
2014-Oct-18 01:33N 53°56' E 000°23'1616.3
2014-Oct-18 00:34N 54°08' E 000°04'1716.7
2014-Oct-17 23:34N 54°21' W 000°14'1717.0
2014-Oct-17 22:33N 54°33' W 000°35'1716.8
2014-Oct-17 21:32N 54°39' W 001°02'5 4.5
2014-Oct-17 20:24N 54°36' W 001°09'0 0.0
2014-Oct-17 19:25N 54°36' W 001°09'0 0.0
2014-Oct-17 18:23N 54°36' W 001°09'0 0.0
2014-Oct-17 17:11N 54°36' W 001°09'0 0.0
2014-Oct-17 16:32N 54°36' W 001°09'0 0.0
2014-Oct-17 15:20N 54°36' W 001°09'0 0.0
2014-Oct-17 14:21N 54°36' W 001°09'0 0.0
2014-Oct-17 13:27N 54°36' W 001°09'5 6.0
2014-Oct-17 12:33N 54°41' W 001°05'1616.0
2014-Oct-17 11:33N 54°47' W 000°39'39916.6
2014-Oct-16 11:33N 57°42' E 010°05'1919.1
2014-Oct-16 10:33N 57°47' E 010°40'1817.4
2014-Oct-16 09:31N 57°37' E 011°08'1717.5
2014-Oct-16 08:33N 57°25' E 011°29'1818.2
2014-Oct-16 07:33N 57°08' E 011°40'1818.1
2014-Oct-16 06:33N 56°51' E 011°51'1817.7
2014-Oct-16 05:33N 56°34' E 012°01'1818.1
2014-Oct-16 04:33N 56°19' E 012°19'1919.3
2014-Oct-16 03:33N 56°03' E 012°39'1716.6
2014-Oct-16 02:33N 55°47' E 012°42'1414.3
2014-Oct-16 01:33N 55°32' E 012°43'1514.9
2014-Oct-16 00:33N 55°18' E 012°43'5417.5
2014-Oct-15 21:26N 55°16' E 014°19'1617.5
2014-Oct-15 20:31N 55°26' E 014°40'1717.6
2014-Oct-15 19:33N 55°27' E 015°10'362 9.0
2014-Oct-14 03:27N 59°37' E 023°17'1617.8
2014-Oct-14 02:33N 59°41' E 023°47'1817.8
2014-Oct-14 01:33N 59°46' E 024°21'66 5.1
2014-Oct-13 12:34N 60°02' E 026°29'  

Dump ship's entire track history